Time;durP1;ratioP1;P1;durP2;ratioP2;P2;SDS_P1;SDS_P2;PMS_P1;PMS_P2;Temp;Humidity;BMP_temperature;BMP_pressure;BME280_temperature;BME280_humidity;BME280_pressure;Samples;Min_cycle;Max_cycle;Signal;HPM_P1;HPM_P2
2023/05/30 00:01:44;;;;;;;;;;;;;;;;;;4877253;29;2597;-60
2023/05/30 00:04:11;;;;;;;;;;;;;;;;;;4877787;29;2045;-60
2023/05/30 00:06:39;;;;;;;;;;;;;;;;;;4877428;29;2116;-58
2023/05/30 00:09:06;;;;;;;;;;;;;;;;;;4877616;29;2146;-60
2023/05/30 00:11:33;;;;;;;;;;;;;;;;;;4877427;29;2050;-58
2023/05/30 00:14:01;;;;;;;;;;;;;;;;;;4877083;29;2384;-59
2023/05/30 00:16:29;;;;;;;;;;;;;;;;;;4877084;29;2170;-56
2023/05/30 00:18:57;;;;;;;;;;;;;;;;;;4877099;29;2013;-57
2023/05/30 00:21:24;;;;;;;;;;;;;;;;;;4877439;29;2106;-60
2023/05/30 00:23:52;;;;;;;;;;;;;;;;;;4877155;29;1976;-53
2023/05/30 00:26:19;;;;;;;;;;;;;;;;;;4877247;29;1971;-56
2023/05/30 00:28:51;;;;;;;;;;;;;;;;;;4877600;29;1996;-57
2023/05/30 00:31:18;;;;;;;;;;;;;;;;;;4876708;29;2010;-58
2023/05/30 00:33:45;;;;;;;;;;;;;;;;;;4877260;29;2065;-59
2023/05/30 00:36:16;;;;;;;;;;;;;;;;;;4878068;29;2023;-58
2023/05/30 00:38:43;;;;;;;;;;;;;;;;;;4875644;29;2047;-59
2023/05/30 00:41:10;;;;;;;;;;;;;;;;;;4875630;29;2198;-59
2023/05/30 00:43:37;;;;;;;;;;;;;;;;;;4876681;29;2127;-58
2023/05/30 00:46:06;;;;;;;;;;;;;;;;;;4875810;29;2098;-58
2023/05/30 00:48:37;;;;;;;;;;;;;;;;;;4876592;29;2073;-57
2023/05/30 00:51:06;;;;;;;;;;;;;;;;;;4875642;29;1942;-58
2023/05/30 00:53:34;;;;;;;;;;;;;;;;;;4881817;29;1921;-59
2023/05/30 00:56:03;;;;;;;;;;;;;;;;;;4894849;29;2098;-57
2023/05/30 00:58:31;;;;;;;;;;;;;;;;;;4880865;29;2118;-56
2023/05/30 01:00:59;;;;;;;;;;;;;;;;;;4876463;29;1985;-59
2023/05/30 01:03:32;;;;;;;;;;;;;;;;;;4876613;29;1981;-59
2023/05/30 01:06:01;;;;;;;;;;;;;;;;;;4876671;29;1992;-59
2023/05/30 01:08:28;;;;;;;;;;;;;;;;;;4875343;29;2038;-58
2023/05/30 01:11:02;;;;;;;;;;;;;;;;;;4876493;29;2097;-55
2023/05/30 01:13:43;;;;;;;;;;;;;;;;;;4876712;29;2074;-55
2023/05/30 01:16:17;;;;;;;;;;;;;;;;;;4874951;29;2011;-60
2023/05/30 01:18:50;;;;;;;;;;;;;;;;;;4875350;29;2093;-55
2023/05/30 01:21:21;;;;;;;;;;;;;;;;;;4876416;29;2080;-58
2023/05/30 01:23:49;;;;;;;;;;;;;;;;;;4876450;29;1987;-59
2023/05/30 01:26:28;;;;;;;;;;;;;;;;;;4876593;29;2288;-60
2023/05/30 01:28:56;;;;;;;;;;;;;;;;;;4876648;29;2032;-55
2023/05/30 01:31:24;;;;;;;;;;;;;;;;;;4876298;29;2251;-57
2023/05/30 01:33:53;;;;;;;;;;;;;;;;;;4875451;29;2067;-59
2023/05/30 01:36:20;;;;;;;;;;;;;;;;;;4876307;29;2102;-58
2023/05/30 01:38:47;;;;;;;;;;;;;;;;;;4876170;29;2290;-59
2023/05/30 01:41:27;;;;;;;;;;;;;;;;;;4875312;29;2117;-59
2023/05/30 01:44:01;;;;;;;;;;;;;;;;;;4876526;29;2480;-55
2023/05/30 01:46:32;;;;;;;;;;;;;;;;;;4876380;29;2150;-59
2023/05/30 01:49:23;;;;;;;;;;;;;;;;;;4876340;29;2740;-59
2023/05/30 01:51:54;;;;;;;;;;;;;;;;;;4874951;29;2045;-59
2023/05/30 01:54:23;;;;;;;;;;;;;;;;;;4887825;29;2296;-59
2023/05/30 01:56:52;;;;;;;;;;;;;;;;;;4891717;29;2233;-59
2023/05/30 01:59:22;;;;;;;;;;;;;;;;;;4875165;29;2238;-52
2023/05/30 02:01:53;;;;;;;;;;;;;;;;;;4875113;29;2051;-53
2023/05/30 02:04:20;;;;;;;;;;;;;;;;;;4876174;29;2122;-58
2023/05/30 02:06:48;;;;;;;;;;;;;;;;;;4876073;29;2017;-59
2023/05/30 02:09:16;;;;;;;;;;;;;;;;;;4877557;29;2271;-59
2023/05/30 02:11:43;;;;;;;;;;;;;;;;;;4878468;29;2143;-55
2023/05/30 02:14:10;;;;;;;;;;;;;;;;;;4879577;29;2104;-54
2023/05/30 02:16:37;;;;;;;;;;;;;;;;;;4879172;29;2487;-57
2023/05/30 02:19:06;;;;;;;;;;;;;;;;;;4878285;29;2169;-52
2023/05/30 02:21:33;;;;;;;;;;;;;;;;;;4877938;29;2349;-52
2023/05/30 02:24:01;;;;;;;;;;;;;;;;;;4880294;29;2207;-55
2023/05/30 02:26:29;;;;;;;;;;;;;;;;;;4878065;29;2157;-59
2023/05/30 02:28:56;;;;;;;;;;;;;;;;;;4879609;29;2243;-55
2023/05/30 02:31:23;;;;;;;;;;;;;;;;;;4878172;29;2172;-56
2023/05/30 02:33:51;;;;;;;;;;;;;;;;;;4877630;29;2401;-54
2023/05/30 02:36:18;;;;;;;;;;;;;;;;;;4877636;29;2166;-55
2023/05/30 02:38:46;;;;;;;;;;;;;;;;;;4879346;29;2247;-52
2023/05/30 02:41:13;;;;;;;;;;;;;;;;;;4877950;29;2455;-56
2023/05/30 02:43:40;;;;;;;;;;;;;;;;;;4878015;29;2181;-54
2023/05/30 02:46:08;;;;;;;;;;;;;;;;;;4877487;29;2465;-57
2023/05/30 02:48:40;;;;;;;;;;;;;;;;;;4877488;29;2024;-58
2023/05/30 02:51:07;;;;;;;;;;;;;;;;;;4878855;29;2218;-58
2023/05/30 02:53:35;;;;;;;;;;;;;;;;;;4881924;29;2212;-54
2023/05/30 02:56:02;;;;;;;;;;;;;;;;;;4896259;29;2329;-55
2023/05/30 02:58:41;;;;;;;;;;;;;;;;;;4885148;29;2142;-56
2023/05/30 03:01:29;;;;;;;;;;;;;;;;;;4878687;29;2163;-55
2023/05/30 03:03:57;;;;;;;;;;;;;;;;;;4877650;29;2212;-54
2023/05/30 03:06:31;;;;;;;;;;;;;;;;;;4877636;29;2370;-60
2023/05/30 03:09:15;;;;;;;;;;;;;;;;;;4877420;29;2396;-57
2023/05/30 03:11:43;;;;;;;;;;;;;;;;;;4876963;29;2322;-59
2023/05/30 03:14:10;;;;;;;;;;;;;;;;;;4878625;29;2164;-60
2023/05/30 03:16:39;;;;;;;;;;;;;;;;;;4877297;29;2326;-59
2023/05/30 03:19:08;;;;;;;;;;;;;;;;;;4877938;29;2002;-59
2023/05/30 03:21:37;;;;;;;;;;;;;;;;;;4876643;29;2238;-59
2023/05/30 03:24:06;;;;;;;;;;;;;;;;;;4876970;29;2161;-59
2023/05/30 03:26:40;;;;;;;;;;;;;;;;;;4890702;29;2558;-59
2023/05/30 03:29:08;;;;;;;;;;;;;;;;;;4896770;29;2159;-56
2023/05/30 03:31:36;;;;;;;;;;;;;;;;;;4897721;29;2160;-59
2023/05/30 03:34:04;;;;;;;;;;;;;;;;;;4895392;29;2434;-56
2023/05/30 03:36:31;;;;;;;;;;;;;;;;;;4895821;29;2275;-53
2023/05/30 03:38:58;;;;;;;;;;;;;;;;;;4912795;29;2265;-59
2023/05/30 03:41:26;;;;;;;;;;;;;;;;;;4876823;29;2283;-56
2023/05/30 03:43:55;;;;;;;;;;;;;;;;;;4876861;29;2366;-61
2023/05/30 03:46:22;;;;;;;;;;;;;;;;;;4895299;29;2096;-58
2023/05/30 03:48:50;;;;;;;;;;;;;;;;;;4894860;29;2059;-59
2023/05/30 03:51:17;;;;;;;;;;;;;;;;;;4895108;29;1982;-58
2023/05/30 03:53:46;;;;;;;;;;;;;;;;;;4896977;29;1862;-58
2023/05/30 03:56:13;;;;;;;;;;;;;;;;;;4895347;29;1978;-60
2023/05/30 03:58:40;;;;;;;;;;;;;;;;;;4880317;29;1945;-60
2023/05/30 04:01:07;;;;;;;;;;;;;;;;;;4905619;29;1949;-60
2023/05/30 04:03:37;;;;;;;;;;;;;;;;;;4896131;29;2012;-61
2023/05/30 04:06:08;;;;;;;;;;;;;;;;;;4895231;29;1987;-61
2023/05/30 04:08:36;;;;;;;;;;;;;;;;;;4895991;29;2266;-55
2023/05/30 04:11:04;;;;;;;;;;;;;;;;;;4895065;29;2235;-57
2023/05/30 04:13:32;;;;;;;;;;;;;;;;;;4895156;29;2027;-53
2023/05/30 04:16:00;;;;;;;;;;;;;;;;;;4894641;29;2013;-61
2023/05/30 04:18:27;;;;;;;;;;;;;;;;;;4894404;29;2179;-62
2023/05/30 04:20:55;;;;;;;;;;;;;;;;;;4895857;29;1925;-61
2023/05/30 04:23:23;;;;;;;;;;;;;;;;;;4896073;29;2114;-61
2023/05/30 04:25:50;;;;;;;;;;;;;;;;;;4895892;29;1849;-59
2023/05/30 04:28:19;;;;;;;;;;;;;;;;;;4895952;29;2224;-60
2023/05/30 04:30:50;;;;;;;;;;;;;;;;;;4896894;29;1871;-52
2023/05/30 04:33:18;;;;;;;;;;;;;;;;;;4894357;29;2080;-60
2023/05/30 04:35:47;;;;;;;;;;;;;;;;;;4894015;29;2487;-62
2023/05/30 04:38:16;;;;;;;;;;;;;;;;;;4894350;29;2096;-61
2023/05/30 04:40:43;;;;;;;;;;;;;;;;;;4894498;29;2007;-60
2023/05/30 04:43:10;;;;;;;;;;;;;;;;;;4894577;29;2120;-61
2023/05/30 04:45:38;;;;;;;;;;;;;;;;;;4894055;29;2231;-47
2023/05/30 04:48:07;;;;;;;;;;;;;;;;;;4895128;29;2503;-56
2023/05/30 04:50:37;;;;;;;;;;;;;;;;;;4894291;29;2234;-60
2023/05/30 04:53:04;;;;;;;;;;;;;;;;;;4895784;29;2139;-60
2023/05/30 04:55:31;;;;;;;;;;;;;;;;;;4896751;29;2146;-49
2023/05/30 04:57:59;;;;;;;;;;;;;;;;;;4883936;29;2069;-56
2023/05/30 05:00:26;;;;;;;;;;;;;;;;;;4876208;29;2233;-61
2023/05/30 05:02:54;;;;;;;;;;;;;;;;;;4877896;29;2318;-57
2023/05/30 05:05:21;;;;;;;;;;;;;;;;;;4877156;29;2232;-53
2023/05/30 05:07:49;;;;;;;;;;;;;;;;;;4876545;29;2007;-61
2023/05/30 05:10:16;;;;;;;;;;;;;;;;;;4875807;29;2164;-58
2023/05/30 05:12:43;;;;;;;;;;;;;;;;;;4876185;29;2165;-59
2023/05/30 05:15:12;;;;;;;;;;;;;;;;;;4876321;29;2594;-60
2023/05/30 05:17:39;;;;;;;;;;;;;;;;;;4876787;29;2028;-61
2023/05/30 05:20:07;;;;;;;;;;;;;;;;;;4876564;29;2070;-60
2023/05/30 05:22:36;;;;;;;;;;;;;;;;;;4876342;29;2245;-61
2023/05/30 05:25:04;;;;;;;;;;;;;;;;;;4876098;29;2250;-61
2023/05/30 05:27:33;;;;;;;;;;;;;;;;;;4876189;29;2067;-60
2023/05/30 05:30:00;;;;;;;;;;;;;;;;;;4876416;29;2134;-61
2023/05/30 05:32:27;;;;;;;;;;;;;;;;;;4876316;29;2318;-56
2023/05/30 05:34:54;;;;;;;;;;;;;;;;;;4876557;29;2099;-59
2023/05/30 05:37:21;;;;;;;;;;;;;;;;;;4875743;29;2053;-61
2023/05/30 05:39:48;;;;;;;;;;;;;;;;;;4876215;29;2026;-59
2023/05/30 05:42:16;;;;;;;;;;;;;;;;;;4876331;29;2363;-61
2023/05/30 05:44:43;;;;;;;;;;;;;;;;;;4879902;29;2590;-62
2023/05/30 05:47:10;;;;;;;;;;;;;;;;;;4880238;29;2035;-56
2023/05/30 05:49:37;;;;;;;;;;;;;;;;;;4879824;29;2080;-55
2023/05/30 05:52:05;;;;;;;;;;;;;;;;;;4879957;29;2167;-61
2023/05/30 05:54:32;;;;;;;;;;;;;;;;;;4893448;29;2078;-53
2023/05/30 05:56:59;;;;;;;;;;;;;;;;;;4896185;29;2048;-60
2023/05/30 05:59:26;;;;;;;;;;;;;;;;;;4880029;29;2201;-59
2023/05/30 06:01:53;;;;;;;;;;;;;;;;;;4896075;29;1959;-59
2023/05/30 06:04:21;;;;;;;;;;;;;;;;;;4898291;29;2188;-61
2023/05/30 06:06:48;;;;;;;;;;;;;;;;;;4898627;29;2064;-63
2023/05/30 06:09:16;;;;;;;;;;;;;;;;;;4897734;29;1910;-61
2023/05/30 06:11:43;;;;;;;;;;;;;;;;;;4898550;29;1968;-50
2023/05/30 06:14:12;;;;;;;;;;;;;;;;;;4897898;29;2026;-62
2023/05/30 06:16:39;;;;;;;;;;;;;;;;;;4898335;29;2041;-59
2023/05/30 06:19:06;;;;;;;;;;;;;;;;;;4898118;29;1710;-61
2023/05/30 06:21:33;;;;;;;;;;;;;;;;;;4881550;29;1963;-60
2023/05/30 06:24:03;;;;;;;;;;;;;;;;;;4878614;29;2029;-61
2023/05/30 06:26:30;;;;;;;;;;;;;;;;;;4879412;29;2002;-61
2023/05/30 06:28:57;;;;;;;;;;;;;;;;;;4879195;29;2170;-61
2023/05/30 06:31:24;;;;;;;;;;;;;;;;;;4879362;29;2069;-60
2023/05/30 06:33:52;;;;;;;;;;;;;;;;;;4879213;29;2298;-64
2023/05/30 06:36:19;;;;;;;;;;;;;;;;;;4879125;29;2151;-58
2023/05/30 06:38:46;;;;;;;;;;;;;;;;;;4878997;29;1997;-52
2023/05/30 06:41:14;;;;;;;;;;;;;;;;;;4879053;29;1952;-50
2023/05/30 06:43:41;;;;;;;;;;;;;;;;;;4879340;29;1980;-48
2023/05/30 06:46:09;;;;;;;;;;;;;;;;;;4893945;29;2243;-55
2023/05/30 06:48:36;;;;;;;;;;;;;;;;;;4897749;29;2134;-50
2023/05/30 06:51:04;;;;;;;;;;;;;;;;;;4897548;29;2309;-50
2023/05/30 06:53:32;;;;;;;;;;;;;;;;;;4898885;29;2078;-51
2023/05/30 06:55:59;;;;;;;;;;;;;;;;;;4895046;29;2073;-58
2023/05/30 06:58:26;;;;;;;;;;;;;;;;;;4883785;29;2176;-60
2023/05/30 07:00:53;;;;;;;;;;;;;;;;;;4878816;29;2010;-58
2023/05/30 07:03:21;;;;;;;;;;;;;;;;;;4878371;29;2353;-60
2023/05/30 07:05:48;;;;;;;;;;;;;;;;;;4878553;29;2137;-60
2023/05/30 07:08:16;;;;;;;;;;;;;;;;;;4878748;29;2173;-61
2023/05/30 07:10:44;;;;;;;;;;;;;;;;;;4893112;29;2154;-59
2023/05/30 07:13:11;;;;;;;;;;;;;;;;;;4878140;29;2042;-62
2023/05/30 07:15:38;;;;;;;;;;;;;;;;;;4893106;29;2146;-59
2023/05/30 07:18:06;;;;;;;;;;;;;;;;;;4897281;29;2099;-59
2023/05/30 07:20:33;;;;;;;;;;;;;;;;;;4897224;29;2235;-60
2023/05/30 07:23:00;;;;;;;;;;;;;;;;;;4897238;29;2137;-61
2023/05/30 07:25:27;;;;;;;;;;;;;;;;;;4896771;29;2193;-56
2023/05/30 07:27:55;;;;;;;;;;;;;;;;;;4897005;29;2267;-61
2023/05/30 07:30:22;;;;;;;;;;;;;;;;;;4896644;29;2417;-58
2023/05/30 07:32:50;;;;;;;;;;;;;;;;;;4897295;29;2425;-53
2023/05/30 07:35:18;;;;;;;;;;;;;;;;;;4896549;29;2518;-48
2023/05/30 07:37:45;;;;;;;;;;;;;;;;;;4896724;29;2156;-63
2023/05/30 07:40:17;;;;;;;;;;;;;;;;;;4896584;29;2192;-57
2023/05/30 07:42:44;;;;;;;;;;;;;;;;;;4896928;29;1987;-59
2023/05/30 07:45:13;;;;;;;;;;;;;;;;;;4897167;29;2028;-57
2023/05/30 07:47:41;;;;;;;;;;;;;;;;;;4896679;29;2072;-49
2023/05/30 07:50:08;;;;;;;;;;;;;;;;;;4896780;29;2184;-61
2023/05/30 07:52:36;;;;;;;;;;;;;;;;;;4896614;29;2172;-62
2023/05/30 07:55:04;;;;;;;;;;;;;;;;;;4897544;29;2043;-57
2023/05/30 07:57:31;;;;;;;;;;;;;;;;;;4889875;29;1988;-60
2023/05/30 07:59:59;;;;;;;;;;;;;;;;;;4877894;29;1951;-62
2023/05/30 08:02:26;;;;;;;;;;;;;;;;;;4877561;29;1993;-53
2023/05/30 08:04:53;;;;;;;;;;;;;;;;;;4877416;29;2063;-61
2023/05/30 08:07:21;;;;;;;;;;;;;;;;;;4877241;29;1993;-58
2023/05/30 08:09:48;;;;;;;;;;;;;;;;;;4877799;29;1977;-63
2023/05/30 08:12:17;;;;;;;;;;;;;;;;;;4877786;29;1985;-62
2023/05/30 08:14:44;;;;;;;;;;;;;;;;;;4877352;29;2155;-60
2023/05/30 08:17:13;;;;;;;;;;;;;;;;;;4877058;29;2058;-62
2023/05/30 08:19:42;;;;;;;;;;;;;;;;;;4877361;29;2145;-57
2023/05/30 08:22:13;;;;;;;;;;;;;;;;;;4877195;29;2203;-56
2023/05/30 08:24:41;;;;;;;;;;;;;;;;;;4890514;29;2207;-58
2023/05/30 08:27:10;;;;;;;;;;;;;;;;;;4895815;29;2036;-61
2023/05/30 08:29:38;;;;;;;;;;;;;;;;;;4893974;29;2041;-63
2023/05/30 08:32:05;;;;;;;;;;;;;;;;;;4895620;29;1982;-55
2023/05/30 08:34:33;;;;;;;;;;;;;;;;;;4895483;29;2047;-59
2023/05/30 08:37:00;;;;;;;;;;;;;;;;;;4895401;29;2092;-56
2023/05/30 08:39:27;;;;;;;;;;;;;;;;;;4895615;29;2028;-52
2023/05/30 08:41:54;;;;;;;;;;;;;;;;;;4895820;29;1813;-61
2023/05/30 08:44:24;;;;;;;;;;;;;;;;;;4895594;29;1962;-61
2023/05/30 08:46:51;;;;;;;;;;;;;;;;;;4895390;29;2096;-61
2023/05/30 08:49:21;;;;;;;;;;;;;;;;;;4910082;29;2027;-63
2023/05/30 08:51:49;;;;;;;;;;;;;;;;;;4876842;29;1987;-61
2023/05/30 08:54:17;;;;;;;;;;;;;;;;;;4889583;29;2040;-61
2023/05/30 08:56:52;;;;;;;;;;;;;;;;;;4893934;29;2209;-59
2023/05/30 08:59:20;;;;;;;;;;;;;;;;;;4877115;29;1919;-62
2023/05/30 09:01:48;;;;;;;;;;;;;;;;;;4876703;29;2121;-60
2023/05/30 09:04:17;;;;;;;;;;;;;;;;;;4876725;29;2178;-62
2023/05/30 09:06:45;;;;;;;;;;;;;;;;;;4876656;29;2193;-60
2023/05/30 09:09:14;;;;;;;;;;;;;;;;;;4876293;29;2447;-61
2023/05/30 09:11:42;;;;;;;;;;;;;;;;;;4876601;29;2198;-59
2023/05/30 09:14:09;;;;;;;;;;;;;;;;;;4875656;29;2213;-54
2023/05/30 09:16:36;;;;;;;;;;;;;;;;;;4876654;29;2094;-55
2023/05/30 09:19:04;;;;;;;;;;;;;;;;;;4875615;29;2187;-59
2023/05/30 09:21:32;;;;;;;;;;;;;;;;;;4876534;29;2109;-62
2023/05/30 09:24:03;;;;;;;;;;;;;;;;;;4875155;29;2137;-58
2023/05/30 09:26:32;;;;;;;;;;;;;;;;;;4876111;29;2561;-58
2023/05/30 09:29:12;;;;;;;;;;;;;;;;;;4876367;29;2159;-61
2023/05/30 09:31:40;;;;;;;;;;;;;;;;;;4876395;29;2016;-63
2023/05/30 09:34:07;;;;;;;;;;;;;;;;;;4876815;29;2040;-61
2023/05/30 09:36:35;;;;;;;;;;;;;;;;;;4876140;29;1976;-58
2023/05/30 09:39:05;;;;;;;;;;;;;;;;;;4875997;29;1922;-63
2023/05/30 09:41:32;;;;;;;;;;;;;;;;;;4876490;29;2005;-53
2023/05/30 09:44:03;;;;;;;;;;;;;;;;;;4876335;29;2189;-49
2023/05/30 09:46:31;;;;;;;;;;;;;;;;;;4876496;29;2024;-53
2023/05/30 09:48:58;;;;;;;;;;;;;;;;;;4875436;29;2113;-54
2023/05/30 09:51:26;;;;;;;;;;;;;;;;;;4876208;29;1989;-58
2023/05/30 09:54:00;;;;;;;;;;;;;;;;;;4897463;29;1985;-58
2023/05/30 09:56:35;;;;;;;;;;;;;;;;;;4894389;29;1966;-49
2023/05/30 09:59:03;;;;;;;;;;;;;;;;;;4876771;29;2216;-54
2023/05/30 10:01:49;;;;;;;;;;;;;;;;;;4875850;29;2306;-52
2023/05/30 10:04:17;;;;;;;;;;;;;;;;;;4875682;29;2074;-59
2023/05/30 10:06:45;;;;;;;;;;;;;;;;;;4876315;29;2005;-60
2023/05/30 10:09:13;;;;;;;;;;;;;;;;;;4877973;29;2589;-60
2023/05/30 10:11:41;;;;;;;;;;;;;;;;;;4876397;29;2164;-57
2023/05/30 10:14:10;;;;;;;;;;;;;;;;;;4876159;29;2065;-61
2023/05/30 10:16:46;;;;;;;;;;;;;;;;;;4876125;29;2008;-51
2023/05/30 10:19:16;;;;;;;;;;;;;;;;;;4875881;29;1936;-55
2023/05/30 10:21:44;;;;;;;;;;;;;;;;;;4875401;29;1945;-57
2023/05/30 10:24:13;;;;;;;;;;;;;;;;;;4875972;29;2116;-59
2023/05/30 10:26:46;;;;;;;;;;;;;;;;;;4875996;29;2077;-63
2023/05/30 10:29:15;;;;;;;;;;;;;;;;;;4875661;29;1723;-62
2023/05/30 10:31:42;;;;;;;;;;;;;;;;;;4878885;29;2337;-62
2023/05/30 10:34:11;;;;;;;;;;;;;;;;;;4879023;29;2230;-62
2023/05/30 10:36:42;;;;;;;;;;;;;;;;;;4879104;29;1972;-63
2023/05/30 10:39:24;;;;;;;;;;;;;;;;;;4878923;29;2051;-62
2023/05/30 10:42:00;;;;;;;;;;;;;;;;;;4878178;29;2117;-56
2023/05/30 10:44:34;;;;;;;;;;;;;;;;;;4878151;29;2098;-63
2023/05/30 10:47:14;;;;;;;;;;;;;;;;;;4877808;29;2153;-56
2023/05/30 10:49:41;;;;;;;;;;;;;;;;;;4878532;29;2159;-60
2023/05/30 10:52:10;;;;;;;;;;;;;;;;;;4877835;29;2201;-61
2023/05/30 10:54:37;;;;;;;;;;;;;;;;;;4893507;29;1952;-57
2023/05/30 10:57:23;;;;;;;;;;;;;;;;;;4894628;29;2081;-57
2023/05/30 10:59:52;;;;;;;;;;;;;;;;;;4878847;29;2059;-62
2023/05/30 11:02:31;;;;;;;;;;;;;;;;;;4878549;29;2221;-62
2023/05/30 11:05:03;;;;;;;;;;;;;;;;;;4879237;29;2210;-62
2023/05/30 11:07:32;;;;;;;;;;;;;;;;;;4878412;29;2286;-59
2023/05/30 11:10:00;;;;;;;;;;;;;;;;;;4878967;29;2054;-60
2023/05/30 11:12:29;;;;;;;;;;;;;;;;;;4878436;29;2329;-62
2023/05/30 11:14:57;;;;;;;;;;;;;;;;;;4877408;29;2015;-60
2023/05/30 11:17:37;;;;;;;;;;;;;;;;;;4877638;29;2028;-62
2023/05/30 11:20:14;;;;;;;;;;;;;;;;;;4878441;29;2001;-58
2023/05/30 11:23:02;;;;;;;;;;;;;;;;;;4877408;29;2035;-60
2023/05/30 11:25:31;;;;;;;;;;;;;;;;;;4877026;29;2102;-59
2023/05/30 11:28:04;;;;;;;;;;;;;;;;;;4877677;29;2610;-62
2023/05/30 11:30:33;;;;;;;;;;;;;;;;;;4878063;29;2179;-62
2023/05/30 11:33:00;;;;;;;;;;;;;;;;;;4896687;29;2407;-55
2023/05/30 11:35:28;;;;;;;;;;;;;;;;;;4898453;29;2157;-61
2023/05/30 11:37:57;;;;;;;;;;;;;;;;;;4895413;29;2154;-62
2023/05/30 11:40:24;;;;;;;;;;;;;;;;;;4895984;29;2204;-62
2023/05/30 11:42:54;;;;;;;;;;;;;;;;;;4895831;29;2001;-57
2023/05/30 11:45:25;;;;;;;;;;;;;;;;;;4896624;29;1971;-61
2023/05/30 11:47:52;;;;;;;;;;;;;;;;;;4896198;29;2005;-53
2023/05/30 11:50:20;;;;;;;;;;;;;;;;;;4896150;29;2286;-52
2023/05/30 11:52:47;;;;;;;;;;;;;;;;;;4896239;29;2050;-57
2023/05/30 11:55:15;;;;;;;;;;;;;;;;;;4900102;29;2153;-61
2023/05/30 11:57:42;;;;;;;;;;;;;;;;;;4888103;29;2248;-58
2023/05/30 12:00:13;;;;;;;;;;;;;;;;;;4877224;29;2025;-56
2023/05/30 12:02:41;;;;;;;;;;;;;;;;;;4877454;29;2056;-61
2023/05/30 12:05:09;;;;;;;;;;;;;;;;;;4877423;29;2111;-62
2023/05/30 12:07:36;;;;;;;;;;;;;;;;;;4877233;29;2506;-57
2023/05/30 12:10:04;;;;;;;;;;;;;;;;;;4878134;29;2359;-58
2023/05/30 12:12:31;;;;;;;;;;;;;;;;;;4877409;29;2254;-62
2023/05/30 12:15:03;;;;;;;;;;;;;;;;;;4877455;29;2096;-60
2023/05/30 12:17:30;;;;;;;;;;;;;;;;;;4876828;29;2378;-56
2023/05/30 12:20:06;;;;;;;;;;;;;;;;;;4877393;29;2313;-57
2023/05/30 12:22:34;;;;;;;;;;;;;;;;;;4877471;29;2023;-59
2023/05/30 12:25:08;;;;;;;;;;;;;;;;;;4877517;29;2255;-62
2023/05/30 12:27:40;;;;;;;;;;;;;;;;;;4877438;29;2016;-62
2023/05/30 12:30:15;;;;;;;;;;;;;;;;;;4876997;29;2182;-55
2023/05/30 12:32:42;;;;;;;;;;;;;;;;;;4876757;29;1996;-62
2023/05/30 12:35:11;;;;;;;;;;;;;;;;;;4891935;29;2251;-57
2023/05/30 12:37:38;;;;;;;;;;;;;;;;;;4895431;29;2190;-50
2023/05/30 12:40:08;;;;;;;;;;;;;;;;;;4895852;29;2266;-55
2023/05/30 12:42:38;;;;;;;;;;;;;;;;;;4885918;29;2362;-55
2023/05/30 12:45:10;;;;;;;;;;;;;;;;;;4877069;29;2042;-50
2023/05/30 12:47:37;;;;;;;;;;;;;;;;;;4876941;29;2256;-58
2023/05/30 12:50:06;;;;;;;;;;;;;;;;;;4876922;29;1996;-55
2023/05/30 12:52:34;;;;;;;;;;;;;;;;;;4876320;29;2464;-54
2023/05/30 12:55:01;;;;;;;;;;;;;;;;;;4893410;29;2205;-56
2023/05/30 12:57:28;;;;;;;;;;;;;;;;;;4889248;29;2491;-56
2023/05/30 12:59:56;;;;;;;;;;;;;;;;;;4876791;29;2177;-56
2023/05/30 13:02:26;;;;;;;;;;;;;;;;;;4876740;29;2129;-52
2023/05/30 13:04:54;;;;;;;;;;;;;;;;;;4876425;29;2256;-54
2023/05/30 13:07:21;;;;;;;;;;;;;;;;;;4876428;29;2245;-53
2023/05/30 13:09:49;;;;;;;;;;;;;;;;;;4876577;29;2330;-55
2023/05/30 13:12:17;;;;;;;;;;;;;;;;;;4876416;29;1995;-54
2023/05/30 13:14:46;;;;;;;;;;;;;;;;;;4876299;29;2451;-55
2023/05/30 13:17:13;;;;;;;;;;;;;;;;;;4875942;29;2428;-52
2023/05/30 13:19:40;;;;;;;;;;;;;;;;;;4876338;29;2169;-57
2023/05/30 13:22:10;;;;;;;;;;;;;;;;;;4895472;29;2126;-59
2023/05/30 13:24:40;;;;;;;;;;;;;;;;;;4895290;29;2281;-56
2023/05/30 13:27:08;;;;;;;;;;;;;;;;;;4894994;29;2295;-57
2023/05/30 13:29:35;;;;;;;;;;;;;;;;;;4892118;29;2248;-51
2023/05/30 13:32:02;;;;;;;;;;;;;;;;;;4894733;29;2294;-61
2023/05/30 13:34:30;;;;;;;;;;;;;;;;;;4894602;29;2189;-55
2023/05/30 13:36:57;;;;;;;;;;;;;;;;;;4894736;29;2046;-59
2023/05/30 13:39:27;;;;;;;;;;;;;;;;;;4894646;29;2036;-58
2023/05/30 13:41:55;;;;;;;;;;;;;;;;;;4896003;29;2261;-51
2023/05/30 13:44:22;;;;;;;;;;;;;;;;;;4894614;29;2403;-49
2023/05/30 13:46:49;;;;;;;;;;;;;;;;;;4894494;29;2098;-57
2023/05/30 13:49:17;;;;;;;;;;;;;;;;;;4894962;29;2259;-56
2023/05/30 13:51:45;;;;;;;;;;;;;;;;;;4894781;29;2603;-55
2023/05/30 13:54:12;;;;;;;;;;;;;;;;;;4898011;29;2211;-54
2023/05/30 13:56:42;;;;;;;;;;;;;;;;;;4894574;29;2549;-56
2023/05/30 13:59:10;;;;;;;;;;;;;;;;;;4893031;29;2099;-56
2023/05/30 14:01:38;;;;;;;;;;;;;;;;;;4894871;29;2233;-59
2023/05/30 14:04:05;;;;;;;;;;;;;;;;;;4895998;29;2134;-56
2023/05/30 14:06:33;;;;;;;;;;;;;;;;;;4898696;29;2278;-57
2023/05/30 14:09:00;;;;;;;;;;;;;;;;;;4897732;29;2531;-55
2023/05/30 14:11:27;;;;;;;;;;;;;;;;;;4898212;29;2126;-58
2023/05/30 14:13:54;;;;;;;;;;;;;;;;;;4898113;29;2313;-54
2023/05/30 14:16:21;;;;;;;;;;;;;;;;;;4897617;29;2103;-57
2023/05/30 14:18:50;;;;;;;;;;;;;;;;;;4898580;29;2556;-54
2023/05/30 14:21:17;;;;;;;;;;;;;;;;;;4898132;29;1945;-58
2023/05/30 14:23:44;;;;;;;;;;;;;;;;;;4898324;29;2174;-51
2023/05/30 14:26:11;;;;;;;;;;;;;;;;;;4898139;29;1936;-58
2023/05/30 14:28:40;;;;;;;;;;;;;;;;;;4897475;29;2141;-54
2023/05/30 14:31:09;;;;;;;;;;;;;;;;;;4898440;29;1910;-53
2023/05/30 14:33:36;;;;;;;;;;;;;;;;;;4897612;29;1949;-55
2023/05/30 14:36:04;;;;;;;;;;;;;;;;;;4897896;29;2018;-59
2023/05/30 14:38:32;;;;;;;;;;;;;;;;;;4897570;29;2052;-61
2023/05/30 14:40:59;;;;;;;;;;;;;;;;;;4897678;29;2258;-59
2023/05/30 14:43:26;;;;;;;;;;;;;;;;;;4897538;29;2158;-53
2023/05/30 14:45:53;;;;;;;;;;;;;;;;;;4897710;29;2180;-57
2023/05/30 14:48:21;;;;;;;;;;;;;;;;;;4897552;29;2038;-59
2023/05/30 14:50:49;;;;;;;;;;;;;;;;;;4897733;29;1965;-58
2023/05/30 14:53:16;;;;;;;;;;;;;;;;;;4898824;29;1999;-57
2023/05/30 14:55:43;;;;;;;;;;;;;;;;;;4899713;29;2133;-53
2023/05/30 14:58:11;;;;;;;;;;;;;;;;;;4885493;29;2199;-57
2023/05/30 15:00:38;;;;;;;;;;;;;;;;;;4879003;29;2011;-57
2023/05/30 15:03:05;;;;;;;;;;;;;;;;;;4883709;29;2143;-59
2023/05/30 15:05:35;;;;;;;;;;;;;;;;;;4883586;29;2192;-55
2023/05/30 15:08:11;;;;;;;;;;;;;;;;;;4897425;29;2286;-58
2023/05/30 15:10:38;;;;;;;;;;;;;;;;;;4897079;29;1950;-60
2023/05/30 15:13:06;;;;;;;;;;;;;;;;;;4897161;29;2014;-56
2023/05/30 15:15:33;;;;;;;;;;;;;;;;;;4896223;29;2030;-50
2023/05/30 15:18:03;;;;;;;;;;;;;;;;;;4896828;29;2115;-56
2023/05/30 15:20:31;;;;;;;;;;;;;;;;;;4897106;29;2042;-62
2023/05/30 15:22:58;;;;;;;;;;;;;;;;;;4896746;29;2369;-57
2023/05/30 15:25:25;;;;;;;;;;;;;;;;;;4896954;29;2118;-52
2023/05/30 15:27:52;;;;;;;;;;;;;;;;;;4896543;29;2119;-62
2023/05/30 15:30:20;;;;;;;;;;;;;;;;;;4896918;29;2020;-61
2023/05/30 15:32:47;;;;;;;;;;;;;;;;;;4896990;29;2146;-56
2023/05/30 15:35:15;;;;;;;;;;;;;;;;;;4897117;29;2129;-53
2023/05/30 15:37:42;;;;;;;;;;;;;;;;;;4896572;29;2055;-61
2023/05/30 15:40:11;;;;;;;;;;;;;;;;;;4896492;29;2224;-58
2023/05/30 15:42:40;;;;;;;;;;;;;;;;;;4896807;29;2240;-58
2023/05/30 15:45:07;;;;;;;;;;;;;;;;;;4896849;29;1992;-53
2023/05/30 15:47:34;;;;;;;;;;;;;;;;;;4896016;29;2338;-53
2023/05/30 15:50:01;;;;;;;;;;;;;;;;;;4896379;29;2141;-55
2023/05/30 15:52:29;;;;;;;;;;;;;;;;;;4894822;29;2261;-58
2023/05/30 15:54:56;;;;;;;;;;;;;;;;;;4897398;29;2192;-55
2023/05/30 15:57:24;;;;;;;;;;;;;;;;;;4888834;29;2059;-53
2023/05/30 15:59:51;;;;;;;;;;;;;;;;;;4876145;29;2122;-56
2023/05/30 16:02:18;;;;;;;;;;;;;;;;;;4875955;29;2064;-55
2023/05/30 16:04:45;;;;;;;;;;;;;;;;;;4875755;29;2470;-51
2023/05/30 16:07:14;;;;;;;;;;;;;;;;;;4876085;29;1973;-59
2023/05/30 16:09:41;;;;;;;;;;;;;;;;;;4875264;29;2253;-52
2023/05/30 16:12:08;;;;;;;;;;;;;;;;;;4875214;29;2405;-58
2023/05/30 16:14:35;;;;;;;;;;;;;;;;;;4876120;29;2025;-51
2023/05/30 16:17:06;;;;;;;;;;;;;;;;;;4875666;29;2103;-51
2023/05/30 16:19:33;;;;;;;;;;;;;;;;;;4875681;29;2010;-51
2023/05/30 16:22:00;;;;;;;;;;;;;;;;;;4875730;29;1989;-57
2023/05/30 16:24:27;;;;;;;;;;;;;;;;;;4875833;29;1999;-52
2023/05/30 16:26:55;;;;;;;;;;;;;;;;;;4875817;29;2024;-58
2023/05/30 16:29:22;;;;;;;;;;;;;;;;;;4876156;29;2098;-49
2023/05/30 16:31:49;;;;;;;;;;;;;;;;;;4877289;29;1945;-51
2023/05/30 16:34:16;;;;;;;;;;;;;;;;;;4877370;29;1942;-54
2023/05/30 16:36:45;;;;;;;;;;;;;;;;;;4875291;29;2520;-60
2023/05/30 16:39:13;;;;;;;;;;;;;;;;;;4876952;29;2099;-59
2023/05/30 16:41:40;;;;;;;;;;;;;;;;;;4876538;29;2094;-56
2023/05/30 16:44:08;;;;;;;;;;;;;;;;;;4877034;29;2213;-60
2023/05/30 16:46:38;;;;;;;;;;;;;;;;;;4875744;29;2044;-56
2023/05/30 16:49:05;;;;;;;;;;;;;;;;;;4875716;29;2237;-56
2023/05/30 16:51:33;;;;;;;;;;;;;;;;;;4876468;29;2223;-57
2023/05/30 16:54:00;;;;;;;;;;;;;;;;;;4886586;29;2145;-57
2023/05/30 16:56:27;;;;;;;;;;;;;;;;;;4895608;29;2212;-59
2023/05/30 16:58:56;;;;;;;;;;;;;;;;;;4878191;29;2103;-58
2023/05/30 17:01:24;;;;;;;;;;;;;;;;;;4876688;29;2450;-55
2023/05/30 17:03:51;;;;;;;;;;;;;;;;;;4876618;29;2252;-57
2023/05/30 17:06:18;;;;;;;;;;;;;;;;;;4876310;29;2329;-57
2023/05/30 17:08:46;;;;;;;;;;;;;;;;;;4876354;29;2274;-57
2023/05/30 17:11:13;;;;;;;;;;;;;;;;;;4876496;29;2108;-55
2023/05/30 17:13:41;;;;;;;;;;;;;;;;;;4876373;29;2560;-60